»·PEaware :: TEXAN33 KRND-KRND

TEXAN33 :: KRND-KRND

FLIGHT INFORMATION

Flight Status: Arrived
Operator: Unknown
More flights by this operator :: More flights under this callsign
Pilot: Indie I. (23354)
Aircraft: BEECH AIRCRAFT T-6A TEXAN
(TEX2)
More flights by this aircraft type
Origin: KRND Randolph AFB
United States
Destination: KRND Randolph AFB
United States
More flights between these airports :: More routes between these airports
Route:
File this flight plan on PilotEdge
Remarks: PATTERNS-15R
Altitude:
(Current/Filed)
1,800ft
Speed:
(Current/Filed)
200kts
Departed: 20-Aug-20 02:00 PM
Arrived: 20-Aug-20 03:43 PM
Distance/Time
Traveled:
0nm/1:43
Distance/Time
To Go:
Arrived

Flight Plot

Page will automatically refresh every two minutes.

Flight plan parsing failed; only flown route is shown


Map Options




Map Legend


Flown Route
Filed Route
Departure Airport
Arrival Airport
Navaid (VOR, NDB)
Fix

Horizontal Profiles

Position Reports

Time Latitude Longitude Heading Altitude Ground
Speed
20-Aug-20 13:46 29.534625 -98.292989 150 765ft 0kts
20-Aug-20 13:55 29.534817 -98.292093 149 765ft 0kts
20-Aug-20 13:56 29.534814 -98.292092 149 765ft 0kts
20-Aug-20 13:57 29.534594 -98.292155 236 765ft 0kts
20-Aug-20 13:58 29.533806 -98.292475 150 765ft 37kts
20-Aug-20 13:59 29.500413 -98.276892 216 1629ft 178kts
20-Aug-20 14:00 29.501997 -98.315233 335 1909ft 201kts
20-Aug-20 14:01 29.554275 -98.344477 6 1959ft 218kts
20-Aug-20 14:02 29.539547 -98.296014 147 1890ft 218kts
20-Aug-20 14:03 29.536896 -98.313923 327 1685ft 129kts
20-Aug-20 14:04 29.537163 -98.294684 152 803ft 108kts
20-Aug-20 14:05 29.501173 -98.272931 184 1852ft 195kts
20-Aug-20 14:06 29.516963 -98.318761 325 1874ft 209kts
20-Aug-20 14:07 29.565529 -98.329029 59 1756ft 212kts
20-Aug-20 14:08 29.525531 -98.288114 183 1781ft 201kts
20-Aug-20 14:09 29.542011 -98.316276 37 1393ft 116kts
20-Aug-20 14:10 29.527527 -98.288317 149 765ft 86kts
20-Aug-20 14:11 29.490069 -98.292424 257 1847ft 205kts
20-Aug-20 14:12 29.533758 -98.331856 327 1941ft 214kts
20-Aug-20 14:13 29.560590 -98.310451 149 1907ft 203kts
20-Aug-20 14:14 29.520300 -98.299415 308 1853ft 153kts
20-Aug-20 14:15 29.544117 -98.302544 113 1076ft 133kts
20-Aug-20 14:16 29.515096 -98.280479 151 1285ft 186kts
20-Aug-20 14:17 29.507116 -98.313382 329 1873ft 208kts
20-Aug-20 14:18 29.559016 -98.339688 49 1883ft 213kts
20-Aug-20 14:19 29.532190 -98.290780 150 1778ft 218kts
20-Aug-20 14:20 29.539283 -98.316719 336 1612ft 129kts
20-Aug-20 14:21 29.534476 -98.293375 150 810ft 121kts
20-Aug-20 14:22 29.495823 -98.280943 227 1600ft 215kts
20-Aug-20 14:23 29.526644 -98.325443 329 1782ft 219kts
20-Aug-20 14:24 29.562315 -98.315701 120 1759ft 217kts
20-Aug-20 14:25 29.516594 -98.295150 270 1760ft 168kts
20-Aug-20 14:26 29.546766 -98.309159 60 1246ft 132kts
20-Aug-20 14:27 29.526118 -98.287373 148 819ft 124kts
20-Aug-20 14:28 29.493352 -98.299729 289 1859ft 202kts
20-Aug-20 14:29 29.542407 -98.337185 330 1817ft 221kts
20-Aug-20 14:30 29.546404 -98.300710 148 1777ft 217kts
20-Aug-20 14:31 29.530300 -98.310503 327 1772ft 129kts
20-Aug-20 14:32 29.536325 -98.294147 149 835ft 118kts
20-Aug-20 14:33 29.504304 -98.276461 195 1573ft 186kts
20-Aug-20 14:34 29.511708 -98.318832 331 1895ft 217kts
20-Aug-20 14:35 29.563549 -98.331135 78 1717ft 226kts
20-Aug-20 14:36 29.523020 -98.288785 207 1850ft 201kts
20-Aug-20 14:37 29.545688 -98.309364 76 1335ft 128kts
20-Aug-20 14:39 29.524579 -98.286418 150 817ft 113kts
20-Aug-20 14:40 29.489775 -98.297469 299 1928ft 196kts
20-Aug-20 14:41 29.539798 -98.336085 330 1673ft 224kts
20-Aug-20 14:42 29.551185 -98.303871 150 1718ft 220kts
20-Aug-20 14:43 29.527350 -98.308723 324 1716ft 143kts
20-Aug-20 14:44 29.541131 -98.297718 145 901ft 106kts
20-Aug-20 14:45 29.512437 -98.278163 149 1262ft 188kts
20-Aug-20 14:46 29.502550 -98.313157 328 1750ft 221kts
20-Aug-20 14:47 29.555948 -98.347123 336 1805ft 222kts
20-Aug-20 14:48 29.587841 -98.330355 121 1302ft 183kts
20-Aug-20 14:49 29.553805 -98.305544 151 1074ft 123kts
20-Aug-20 14:50 29.527485 -98.288447 149 774ft 98kts
20-Aug-20 14:51 29.491745 -98.296374 302 1857ft 206kts
20-Aug-20 14:52 29.540113 -98.336315 327 1840ft 220kts
20-Aug-20 14:53 29.547117 -98.301053 149 1791ft 218kts
20-Aug-20 14:54 29.511080 -98.299371 325 1725ft 161kts
20-Aug-20 14:55 29.544218 -98.312322 55 1322ft 123kts
20-Aug-20 14:56 29.526045 -98.287412 150 796ft 112kts
20-Aug-20 14:57 29.490254 -98.297450 301 1967ft 206kts
20-Aug-20 14:57 29.531412 -98.330615 329 1869ft 223kts
20-Aug-20 14:58 29.558668 -98.308647 150 1654ft 218kts
20-Aug-20 15:00 29.521698 -98.302313 327 1625ft 148kts
20-Aug-20 15:00 29.545859 -98.307932 83 1189ft 122kts
20-Aug-20 15:01 29.522733 -98.285249 149 966ft 155kts
20-Aug-20 15:02 29.492178 -98.303780 327 1726ft 209kts
20-Aug-20 15:03 29.542869 -98.339749 330 1820ft 214kts
20-Aug-20 15:04 29.560980 -98.309093 149 1870ft 192kts
20-Aug-20 15:05 29.521138 -98.303236 312 1888ft 157kts
20-Aug-20 15:06 29.543008 -98.299368 130 1045ft 116kts
20-Aug-20 15:07 29.512347 -98.277762 151 1269ft 204kts
20-Aug-20 15:08 29.510795 -98.316080 328 1844ft 226kts
20-Aug-20 15:09 29.564647 -98.353380 327 1862ft 221kts
20-Aug-20 15:10 29.586365 -98.328733 129 1256ft 171kts
20-Aug-20 15:11 29.553006 -98.304907 149 1023ft 123kts
20-Aug-20 15:12 29.525285 -98.286717 148 951ft 136kts
20-Aug-20 15:13 29.492353 -98.303247 320 1918ft 208kts
20-Aug-20 15:14 29.544255 -98.339214 328 1764ft 220kts
20-Aug-20 15:15 29.548320 -98.301898 146 1753ft 213kts
20-Aug-20 15:16 29.529078 -98.306115 323 1701ft 140kts
20-Aug-20 15:17 29.538378 -98.295602 148 839ft 121kts
20-Aug-20 15:18 29.503379 -98.273782 180 1531ft 204kts
20-Aug-20 15:19 29.511007 -98.317011 328 1866ft 213kts
20-Aug-20 15:20 29.560966 -98.336223 61 1771ft 211kts
20-Aug-20 15:21 29.527173 -98.288456 170 1804ft 209kts
20-Aug-20 15:22 29.544093 -98.309604 56 1399ft 130kts
20-Aug-20 15:23 29.522788 -98.285324 150 921ft 141kts
20-Aug-20 15:24 29.495602 -98.305475 323 1885ft 210kts
20-Aug-20 15:25 29.547915 -98.341419 331 1772ft 220kts
20-Aug-20 15:26 29.540846 -98.296942 150 1848ft 215kts
20-Aug-20 15:27 29.532620 -98.310029 329 1648ft 122kts
20-Aug-20 15:28 29.536694 -98.294401 150 791ft 118kts
20-Aug-20 15:29 29.501044 -98.276817 213 1624ft 207kts
20-Aug-20 15:30 29.521492 -98.322481 326 1960ft 220kts
20-Aug-20 15:31 29.566381 -98.325994 99 1836ft 207kts
20-Aug-20 15:32 29.522453 -98.290207 208 1748ft 188kts
20-Aug-20 15:33 29.544148 -98.306289 81 1270ft 128kts
20-Aug-20 15:34 29.518255 -98.282037 149 1009ft 183kts
20-Aug-20 15:35 29.536820 -98.310859 331 1726ft 136kts
20-Aug-20 15:36 29.530296 -98.290195 150 765ft 83kts
20-Aug-20 15:37 29.493463 -98.290621 234 1835ft 206kts
20-Aug-20 15:38 29.528687 -98.329613 331 1957ft 217kts
20-Aug-20 15:39 29.582869 -98.363210 8 1769ft 202kts
20-Aug-20 15:40 29.575381 -98.319592 151 1273ft 153kts
20-Aug-20 15:41 29.545282 -98.299824 150 940ft 117kts
20-Aug-20 15:42 29.526757 -98.286543 56 765ft 18kts
20-Aug-20 15:43 29.526853 -98.286375 56 765ft 7kts
20-Aug-20 15:44 29.526853 -98.286375 56 765ft 7kts

Navigation Log

Ident Type
Flight plan parsing failed, navigation log unavailable